Time;durP1;ratioP1;P1;durP2;ratioP2;P2;SDS_P1;SDS_P2;PMS_P1;PMS_P2;Temp;Humidity;BMP_temperature;BMP_pressure;BME280_temperature;BME280_humidity;BME280_pressure;Samples;Min_cycle;Max_cycle;Signal;HPM_P1;HPM_P2
2022/01/26 00:00:30;;;;;;;;;;;;;;;1.83;100.00;99258.73;1662158;86;25185;-84
2022/01/26 00:05:48;;;;;;;;;;;;;;;1.78;100.00;99260.13;1661332;86;26046;-85
2022/01/26 00:08:11;;;;;;;;;;;;;;;1.76;100.00;99263.17;1658301;86;24471;-85
2022/01/26 00:10:43;;;;;;;;;;;;;;;1.74;100.00;99261.09;1662001;86;20280;-85
2022/01/26 00:13:09;;;;;;;;;;;;;;;1.77;100.00;99258.87;1661715;86;25562;-85
2022/01/26 00:15:35;;;;;;;;;;;;;;;1.80;100.00;99254.48;1662571;86;21910;-85
2022/01/26 00:18:01;;;;;;;;;;;;;;;1.81;100.00;99254.89;1663396;86;25982;-85
2022/01/26 00:20:36;;;;;;;;;;;;;;;1.81;100.00;99245.86;1663392;86;24506;-85
2022/01/26 00:23:31;;;;;;;;;;;;;;;1.80;100.00;99254.48;1660046;86;20233;-85
2022/01/26 00:38:46;;;;;;;;;;;;;;;1.66;100.00;99252.64;1660092;86;25076;-84
2022/01/26 00:41:08;;;;;;;;;;;;;;;1.62;100.00;99251.88;1674609;83;22676;-84
2022/01/26 00:43:34;;;;;;;;;;;;;;;1.58;100.00;99243.77;1667457;85;26023;-84
2022/01/26 00:46:01;;;;;;;;;;;;;;;1.55;100.00;99241.27;1670245;85;24484;-84
2022/01/26 00:48:31;;;;;;;;;;;;;;;1.52;100.00;99240.48;1668497;85;20491;-84
2022/01/26 00:51:00;;;;;;;;;;;;;;;1.54;100.00;99247.30;1661054;85;25740;-84
2022/01/26 00:53:31;;;;;;;;;;;;;;;1.55;100.00;99249.44;1664258;85;22120;-84
2022/01/26 00:55:54;;;;;;;;;;;;;;;1.54;100.00;99247.30;1658837;84;26121;-84
2022/01/26 00:58:20;;;;;;;;;;;;;;;1.54;100.00;99244.72;1659846;85;24527;-84
2022/01/26 01:00:47;;;;;;;;;;;;;;;1.54;100.00;99248.59;1668367;85;20201;-84
2022/01/26 01:03:17;;;;;;;;;;;;;;;1.53;100.00;99248.17;1663288;85;25013;-84
2022/01/26 01:05:56;;;;;;;;;;;;;;;1.51;100.00;99249.95;1664166;85;22057;-84
2022/01/26 01:08:21;;;;;;;;;;;;;;;1.52;100.00;99245.21;1658356;85;26725;-84
2022/01/26 01:10:48;;;;;;;;;;;;;;;1.55;100.00;99247.71;1668285;85;24537;-84
2022/01/26 01:13:18;;;;;;;;;;;;;;;1.59;100.00;99244.17;1668580;84;20259;-84
2022/01/26 01:15:43;;;;;;;;;;;;;;;1.64;100.00;99248.80;1665488;85;24989;-84
2022/01/26 01:18:25;;;;;;;;;;;;;;;1.64;100.00;99244.92;1665396;84;22550;-84
2022/01/26 01:23:41;;;;;;;;;;;;;;;1.68;100.00;99247.88;1659782;85;24537;-84
2022/01/26 01:28:42;;;;;;;;;;;;;;;1.67;100.00;99244.88;1633713;85;25000;-84
2022/01/26 01:30:57;;;;;;;;;;;;;;;1.67;100.00;99244.88;1660531;85;22016;-84
2022/01/26 01:33:29;;;;;;;;;;;;;;;1.68;100.00;99243.16;1646483;85;26678;-84
2022/01/26 01:35:51;;;;;;;;;;;;;;;1.66;100.00;99241.03;1666754;85;24599;-84
2022/01/26 01:38:28;;;;;;;;;;;;;;;1.65;100.00;99241.47;1658141;84;20213;-84
2022/01/26 01:40:54;;;;;;;;;;;;;;;1.66;100.00;99240.59;1669505;85;25640;-84
2022/01/26 01:43:21;;;;;;;;;;;;;;;1.66;100.00;99239.31;1656592;85;22056;-84
2022/01/26 01:45:49;;;;;;;;;;;;;;;1.67;100.00;99233.71;1666317;85;26302;-84
2022/01/26 01:48:19;;;;;;;;;;;;;;;1.68;100.00;99224.66;1646787;85;24502;-84
2022/01/26 01:50:46;;;;;;;;;;;;;;;1.69;100.00;99216.48;1666989;85;20229;-84
2022/01/26 01:53:15;;;;;;;;;;;;;;;1.69;100.00;99219.06;1661309;85;24983;-84
2022/01/26 01:55:46;;;;;;;;;;;;;;;1.68;100.00;99219.50;1663344;84;21982;-84
2022/01/26 01:58:12;;;;;;;;;;;;;;;1.68;100.00;99216.06;1656989;85;26110;-84
2022/01/26 02:00:39;;;;;;;;;;;;;;;1.66;100.00;99217.38;1668449;85;24482;-84
2022/01/26 02:03:05;;;;;;;;;;;;;;;1.65;100.00;99213.09;1662721;85;20492;-84
2022/01/26 02:05:31;;;;;;;;;;;;;;;1.64;100.00;99213.97;1666771;85;24999;-84
2022/01/26 02:07:58;;;;;;;;;;;;;;;1.65;100.00;99213.53;1661631;84;22027;-84
2022/01/26 02:10:25;;;;;;;;;;;;;;;1.66;100.00;99212.66;1667624;85;26055;-84
2022/01/26 02:12:56;;;;;;;;;;;;;;;1.68;100.00;99208.33;1663230;84;24441;-84
2022/01/26 02:15:29;;;;;;;;;;;;;;;1.68;100.00;99208.33;1665112;84;20584;-84
2022/01/26 02:53:45;;;;;;;;;;;;;;;1.48;100.00;99193.26;1662085;85;24651;-83
2022/01/26 02:56:04;;;;;;;;;;;;;;;1.48;100.00;99195.84;1676036;84;20247;-84
2022/01/26 02:58:52;;;;;;;;;;;;;;;1.51;100.00;99193.21;1678196;84;25862;-83
2022/01/26 03:03:50;;;;;;;;;;;;;;;1.52;100.00;99202.66;1646213;84;26120;-84
2022/01/26 03:06:16;;;;;;;;;;;;;;;1.49;100.00;99202.70;1677786;85;24543;-84
2022/01/26 03:08:43;;;;;;;;;;;;;;;1.52;100.00;99200.52;1637860;86;20219;-84
2022/01/26 03:11:10;;;;;;;;;;;;;;;1.54;100.00;99192.28;1677231;84;24985;-84
2022/01/26 03:13:41;;;;;;;;;;;;;;;1.55;100.00;99193.98;1665741;86;22046;-84
2022/01/26 03:16:22;;;;;;;;;;;;;;;1.57;100.00;99189.65;1664206;85;25990;-84
2022/01/26 03:21:07;;;;;;;;;;;;;;;1.57;100.00;99190.94;1661070;86;20287;-84
2022/01/26 03:32:29;;;;;;;;;;;;;;;1.56;100.00;99185.37;1660945;86;24528;-83
2022/01/26 03:34:19;;;;;;;;;;;;;;;1.55;100.00;99188.38;1661353;85;20178;-83
2022/01/26 03:36:56;;;;;;;;;;;;;;;1.55;100.00;99184.95;1666256;86;24985;-84
2022/01/26 03:39:19;;;;;;;;;;;;;;;1.54;100.00;99175.52;1663017;86;22015;-83
2022/01/26 03:41:49;;;;;;;;;;;;;;;1.53;100.00;99173.81;1650837;86;26203;-84
2022/01/26 03:44:16;;;;;;;;;;;;;;;1.55;100.00;99178.51;1652492;86;25057;-84
2022/01/26 03:46:44;;;;;;;;;;;;;;;1.53;100.00;99175.10;1662888;85;20258;-84
2022/01/26 03:49:10;;;;;;;;;;;;;;;1.53;100.00;99180.26;1641460;85;24772;-84
2022/01/26 03:51:37;;;;;;;;;;;;;;;1.52;100.00;99173.42;1668887;85;22063;-84
2022/01/26 03:54:04;;;;;;;;;;;;;;;1.51;100.00;99170.44;1665568;85;26097;-84
2022/01/26 03:56:33;;;;;;;;;;;;;;;1.49;100.00;99169.17;1669921;85;20192;-84
2022/01/26 03:58:59;;;;;;;;;;;;;;;1.50;100.00;99170.87;1672506;85;20455;-84
2022/01/26 04:01:25;;;;;;;;;;;;;;;1.51;100.00;99169.14;1668224;85;25015;-84
2022/01/26 04:03:51;;;;;;;;;;;;;;;1.51;100.00;99169.14;1671919;85;22051;-84
2022/01/26 04:06:17;;;;;;;;;;;;;;;1.52;100.00;99176.01;1672676;85;26137;-84
2022/01/26 04:08:44;;;;;;;;;;;;;;;1.55;100.00;99175.48;1669355;85;24481;-84
2022/01/26 04:11:35;;;;;;;;;;;;;;;1.56;100.00;99176.34;1672595;85;20169;-83
2022/01/26 04:13:43;;;;;;;;;;;;;;;1.56;100.00;99173.77;1666720;85;25280;-85
2022/01/26 04:16:10;;;;;;;;;;;;;;;1.57;100.00;99172.89;1670855;85;21951;-84
2022/01/26 04:18:39;;;;;;;;;;;;;;;1.58;100.00;99182.33;1670347;85;26046;-84
2022/01/26 04:26:14;;;;;;;;;;;;;;;1.59;100.00;99171.95;1652871;86;25147;-84
2022/01/26 04:28:46;;;;;;;;;;;;;;;1.63;100.00;99176.19;1660625;85;22185;-84
2022/01/26 04:31:10;;;;;;;;;;;;;;;1.64;100.00;99176.56;1668906;85;25963;-84
2022/01/26 04:33:36;;;;;;;;;;;;;;;1.63;100.00;99171.02;1670642;85;24530;-84
2022/01/26 04:36:06;;;;;;;;;;;;;;;1.62;100.00;99173.20;1669890;85;20813;-84
2022/01/26 04:38:43;;;;;;;;;;;;;;;1.59;100.00;99168.52;1667923;85;25117;-84
2022/01/26 04:43:44;;;;;;;;;;;;;;;1.59;100.00;99174.53;1671309;85;26149;-84
2022/01/26 04:46:13;;;;;;;;;;;;;;;1.57;100.00;99170.31;1690367;84;24428;-84
2022/01/26 04:48:43;;;;;;;;;;;;;;;1.54;100.00;99172.50;1648799;85;20295;-84
2022/01/26 04:51:09;;;;;;;;;;;;;;;1.53;100.00;99175.10;1656489;86;25014;-84
2022/01/26 04:53:35;;;;;;;;;;;;;;;1.53;100.00;99172.52;1652098;85;21973;-84
2022/01/26 04:56:01;;;;;;;;;;;;;;;1.52;100.00;99172.14;1654716;85;25984;-84
2022/01/26 04:58:29;;;;;;;;;;;;;;;1.50;100.00;99166.16;1639197;86;20158;-84
2022/01/26 05:00:55;;;;;;;;;;;;;;;1.50;100.00;99173.89;1643724;86;20222;-84
2022/01/26 05:03:21;;;;;;;;;;;;;;;1.48;100.00;99170.48;1646089;86;25152;-83
2022/01/26 05:05:47;;;;;;;;;;;;;;;1.48;100.00;99170.48;1646763;85;22051;-84
2022/01/26 05:08:13;;;;;;;;;;;;;;;1.47;100.00;99173.53;1646684;86;25972;-84
2022/01/26 05:10:42;;;;;;;;;;;;;;;1.46;100.00;99169.69;1648974;86;20820;-84
2022/01/26 05:13:09;;;;;;;;;;;;;;;1.45;100.00;99165.41;1642754;85;20223;-83
2022/01/26 05:15:36;;;;;;;;;;;;;;;1.42;100.00;99157.28;1644114;86;25102;-83
2022/01/26 05:18:02;;;;;;;;;;;;;;;1.43;100.00;99160.27;1645179;85;22069;-83
2022/01/26 05:20:29;;;;;;;;;;;;;;;1.45;100.00;99157.23;1648811;86;26030;-84
2022/01/26 05:22:55;;;;;;;;;;;;;;;1.45;100.00;99157.23;1643561;86;24590;-84
2022/01/26 05:25:22;;;;;;;;;;;;;;;1.45;100.00;99157.23;1643479;86;20218;-83
2022/01/26 05:27:48;;;;;;;;;;;;;;;1.45;100.00;99159.81;1645964;86;25039;-83
2022/01/26 05:30:15;;;;;;;;;;;;;;;1.46;100.00;99157.64;1640763;86;22147;-83
2022/01/26 05:32:41;;;;;;;;;;;;;;;1.45;100.00;99159.81;1651070;86;26159;-83
2022/01/26 05:35:07;;;;;;;;;;;;;;;1.45;100.00;99160.25;1641927;86;24407;-84
2022/01/26 05:37:33;;;;;;;;;;;;;;;1.42;100.00;99154.70;1650750;86;20239;-83
2022/01/26 05:40:01;;;;;;;;;;;;;;;1.41;100.00;99154.76;1646852;86;25123;-83
2022/01/26 05:42:27;;;;;;;;;;;;;;;1.40;100.00;99153.05;1648208;86;21998;-83
2022/01/26 05:44:59;;;;;;;;;;;;;;;1.38;100.00;99153.52;1647040;86;26024;-83
2022/01/26 05:47:21;;;;;;;;;;;;;;;1.40;100.00;99149.19;1643533;86;25128;-84
2022/01/26 05:49:52;;;;;;;;;;;;;;;1.41;100.00;99147.02;1663597;85;20491;-83
2022/01/26 05:52:15;;;;;;;;;;;;;;;1.43;100.00;99148.67;1670578;85;25175;-83
2022/01/26 05:54:41;;;;;;;;;;;;;;;1.43;100.00;99146.53;1671165;85;22089;-84
2022/01/26 05:57:08;;;;;;;;;;;;;;;1.45;100.00;99152.52;1670314;85;25951;-83
2022/01/26 05:59:38;;;;;;;;;;;;;;;1.47;100.00;99153.34;1670231;85;25772;-84
2022/01/26 06:02:04;;;;;;;;;;;;;;;1.49;100.00;99147.69;1672747;85;20527;-84
2022/01/26 06:04:33;;;;;;;;;;;;;;;1.49;100.00;99144.67;1670759;85;25132;-83
2022/01/26 06:06:59;;;;;;;;;;;;;;;1.50;100.00;99145.52;1668978;85;21990;-84
2022/01/26 06:09:25;;;;;;;;;;;;;;;1.49;100.00;99143.82;1672252;85;26129;-83
2022/01/26 06:11:53;;;;;;;;;;;;;;;1.48;100.00;99141.67;1671243;85;24491;-84
2022/01/26 06:14:19;;;;;;;;;;;;;;;1.48;100.00;99135.23;1670855;85;21396;-84
2022/01/26 06:16:45;;;;;;;;;;;;;;;1.47;100.00;99132.27;1671949;85;24992;-84
2022/01/26 06:19:11;;;;;;;;;;;;;;;1.48;100.00;99140.83;1672375;85;21997;-84
2022/01/26 06:21:38;;;;;;;;;;;;;;;1.47;100.00;99133.56;1672887;85;26036;-84
2022/01/26 06:24:05;;;;;;;;;;;;;;;1.49;100.00;99141.23;1669152;85;24729;-84
2022/01/26 06:26:31;;;;;;;;;;;;;;;1.50;100.00;99142.50;1671369;85;20447;-84
2022/01/26 06:28:59;;;;;;;;;;;;;;;1.54;100.00;99148.43;1670581;85;25916;-83
2022/01/26 06:31:27;;;;;;;;;;;;;;;1.53;100.00;99151.89;1670414;85;22012;-84
2022/01/26 06:34:01;;;;;;;;;;;;;;;1.53;100.00;99150.59;1669906;85;27614;-84
2022/01/26 06:36:26;;;;;;;;;;;;;;;1.54;100.00;99152.30;1672054;85;25123;-84
2022/01/26 06:38:53;;;;;;;;;;;;;;;1.54;100.00;99142.84;1670286;85;20245;-84
2022/01/26 06:41:24;;;;;;;;;;;;;;;1.55;100.00;99144.53;1672015;85;25065;-84
2022/01/26 06:43:57;;;;;;;;;;;;;;;1.57;100.00;99142.78;1668376;85;21904;-84
2022/01/26 06:46:29;;;;;;;;;;;;;;;1.56;100.00;99143.66;1669674;85;26110;-84
2022/01/26 06:51:31;;;;;;;;;;;;;;;1.54;100.00;99140.70;1670750;84;20358;-84
2022/01/26 06:53:57;;;;;;;;;;;;;;;1.52;100.00;99142.05;1670739;85;20814;-84
2022/01/26 06:56:23;;;;;;;;;;;;;;;1.50;100.00;99143.80;1671748;85;22225;-84
2022/01/26 06:58:49;;;;;;;;;;;;;;;1.49;100.00;99148.98;1670438;85;25988;-83
2022/01/26 07:01:21;;;;;;;;;;;;;;;1.48;100.00;99148.56;1670552;85;24477;-84
2022/01/26 07:03:50;;;;;;;;;;;;;;;1.47;100.00;99150.33;1670393;85;20209;-84
2022/01/26 07:06:16;;;;;;;;;;;;;;;1.47;100.00;99149.47;1671108;85;25088;-84
2022/01/26 07:08:43;;;;;;;;;;;;;;;1.44;100.00;99147.80;1674241;85;21974;-84
2022/01/26 07:11:09;;;;;;;;;;;;;;;1.45;100.00;99149.50;1670560;85;26040;-84
2022/01/26 07:13:35;;;;;;;;;;;;;;;1.48;100.00;99148.56;1671707;85;24570;-83
2022/01/26 07:21:30;;;;;;;;;;;;;;;1.49;100.00;99152.41;1656732;85;22096;-84
2022/01/26 07:23:59;;;;;;;;;;;;;;;1.51;100.00;99149.80;1656541;85;23824;-84
2022/01/26 07:26:28;;;;;;;;;;;;;;;1.52;100.00;99147.20;1671621;85;24605;-84
2022/01/26 07:28:55;;;;;;;;;;;;;;;1.54;100.00;99139.41;1670327;85;20241;-84
2022/01/26 07:31:22;;;;;;;;;;;;;;;1.55;100.00;99143.25;1668881;85;25018;-84
2022/01/26 07:33:53;;;;;;;;;;;;;;;1.58;100.00;99142.34;1670787;85;22058;-84
2022/01/26 07:36:18;;;;;;;;;;;;;;;1.60;100.00;99143.98;1671494;85;26045;-84
2022/01/26 07:38:44;;;;;;;;;;;;;;;1.62;100.00;99142.23;1672613;85;24418;-84
2022/01/26 07:41:10;;;;;;;;;;;;;;;1.64;100.00;99134.44;1669528;85;20229;-84
2022/01/26 07:43:39;;;;;;;;;;;;;;;1.68;100.00;99133.52;1669914;85;25014;-84
2022/01/26 07:46:14;;;;;;;;;;;;;;;1.72;100.00;99139.00;1672494;85;22969;-83
2022/01/26 07:48:42;;;;;;;;;;;;;;;1.72;100.00;99139.00;1653687;85;21333;-84
2022/01/26 07:51:08;;;;;;;;;;;;;;;1.74;100.00;99141.55;1668755;85;24374;-84
2022/01/26 07:53:37;;;;;;;;;;;;;;;1.73;100.00;99130.38;1671284;85;20288;-83
2022/01/26 07:56:03;;;;;;;;;;;;;;;1.71;100.00;99133.86;1671774;85;25048;-84
2022/01/26 07:58:29;;;;;;;;;;;;;;;1.71;100.00;99131.28;1669839;85;21944;-84
2022/01/26 08:00:55;;;;;;;;;;;;;;;1.73;100.00;99129.53;1670560;85;26029;-84
2022/01/26 08:03:21;;;;;;;;;;;;;;;1.73;100.00;99134.25;1670913;85;24703;-84
2022/01/26 08:05:47;;;;;;;;;;;;;;;1.74;100.00;99129.94;1671493;85;20299;-84
2022/01/26 08:08:14;;;;;;;;;;;;;;;1.64;100.00;99120.25;1667063;85;25392;-84
2022/01/26 08:10:41;;;;;;;;;;;;;;;1.75;100.00;99139.35;1668956;85;21995;-84
2022/01/26 08:13:07;;;;;;;;;;;;;;;1.74;100.00;99138.53;1673510;85;25996;-84
2022/01/26 08:15:34;;;;;;;;;;;;;;;1.76;100.00;99142.34;1671928;85;23954;-84
2022/01/26 08:18:00;;;;;;;;;;;;;;;1.79;100.00;99140.56;1673122;85;20245;-84
2022/01/26 08:20:26;;;;;;;;;;;;;;;1.80;100.00;99134.49;1670360;85;25050;-84
2022/01/26 08:22:55;;;;;;;;;;;;;;;1.80;100.00;99140.13;1672835;85;20270;-84
2022/01/26 08:25:21;;;;;;;;;;;;;;;1.82;100.00;99138.33;1670025;85;26291;-83
2022/01/26 08:27:54;;;;;;;;;;;;;;;1.85;100.00;99135.70;1669483;85;24541;-84
2022/01/26 08:30:19;;;;;;;;;;;;;;;1.87;100.00;99136.05;1670935;85;20530;-84
2022/01/26 08:32:45;;;;;;;;;;;;;;;1.92;100.00;99134.20;1668438;85;24989;-86
2022/01/26 08:35:11;;;;;;;;;;;;;;;1.94;100.00;99131.59;1670261;85;22027;-84
2022/01/26 08:37:37;;;;;;;;;;;;;;;1.98;100.00;99129.34;1673580;85;25873;-84
2022/01/26 08:40:04;;;;;;;;;;;;;;;2.03;100.00;99134.80;1671042;85;24398;-85
2022/01/26 08:42:30;;;;;;;;;;;;;;;2.08;100.00;99141.13;1669956;85;20225;-85
2022/01/26 08:44:56;;;;;;;;;;;;;;;2.11;100.00;99144.95;1671941;85;25557;-84
2022/01/26 08:47:22;;;;;;;;;;;;;;;2.15;100.00;99140.11;1671046;85;21935;-84
2022/01/26 08:49:48;;;;;;;;;;;;;;;2.18;100.00;99141.78;1667289;85;25951;-85
2022/01/26 08:52:14;;;;;;;;;;;;;;;2.20;100.00;99148.59;1662173;86;24499;-84
2022/01/26 08:54:40;;;;;;;;;;;;;;;2.23;100.00;99151.11;1662575;86;20254;-84
2022/01/26 08:57:06;;;;;;;;;;;;;;;2.23;100.00;99151.55;1664283;86;25007;-84
2022/01/26 08:59:32;;;;;;;;;;;;;;;2.24;100.00;99148.05;1664415;86;21993;-84
2022/01/26 09:01:58;;;;;;;;;;;;;;;2.21;100.00;99146.86;1661369;86;26041;-84
2022/01/26 09:04:25;;;;;;;;;;;;;;;2.22;100.00;99153.72;1661710;86;24476;-85
2022/01/26 09:07:03;;;;;;;;;;;;;;;2.23;100.00;99151.11;1660727;86;20272;-84
2022/01/26 09:09:27;;;;;;;;;;;;;;;2.23;100.00;99151.55;1659875;86;24981;-84
2022/01/26 09:11:57;;;;;;;;;;;;;;;2.26;100.00;99152.75;1659805;86;22233;-84
2022/01/26 09:14:28;;;;;;;;;;;;;;;2.28;100.00;99158.30;1658737;86;25985;-84
2022/01/26 09:16:54;;;;;;;;;;;;;;;2.34;100.00;99158.59;1663148;86;24472;-84
2022/01/26 09:19:33;;;;;;;;;;;;;;;2.36;100.00;99156.80;1662339;86;20511;-84
2022/01/26 09:22:00;;;;;;;;;;;;;;;2.37;100.00;99159.34;1660316;86;25022;-85
2022/01/26 09:24:27;;;;;;;;;;;;;;;2.38;100.00;99163.63;1661613;86;21917;-84
2022/01/26 09:26:53;;;;;;;;;;;;;;;2.42;100.00;99166.97;1663170;86;26077;-85
2022/01/26 09:29:19;;;;;;;;;;;;;;;2.44;100.00;99163.48;1659786;86;24678;-84
2022/01/26 09:31:47;;;;;;;;;;;;;;;2.47;100.00;99164.67;1661596;86;20229;-84
2022/01/26 09:34:21;;;;;;;;;;;;;;;2.48;100.00;99166.38;1659431;86;25150;-84
2022/01/26 09:36:56;;;;;;;;;;;;;;;2.48;100.00;99158.62;1660931;86;23034;-84
2022/01/26 09:39:23;;;;;;;;;;;;;;;2.52;100.00;99159.39;1660470;86;26066;-85
2022/01/26 09:41:50;;;;;;;;;;;;;;;2.54;100.00;99152.45;1658954;86;24402;-84
2022/01/26 09:44:17;;;;;;;;;;;;;;;2.54;100.00;99151.16;1659777;86;20474;-84
2022/01/26 09:46:44;;;;;;;;;;;;;;;2.57;100.00;99157.97;1663206;86;25032;-84
2022/01/26 09:49:10;;;;;;;;;;;;;;;2.56;100.00;99151.13;1660791;86;22161;-84
2022/01/26 09:51:41;;;;;;;;;;;;;;;2.57;100.00;99143.32;1663075;85;26094;-84
2022/01/26 09:54:05;;;;;;;;;;;;;;;2.58;100.00;99139.85;1659452;85;24529;-84
2022/01/26 09:56:32;;;;;;;;;;;;;;;2.61;100.00;99146.69;1662149;86;20225;-85
2022/01/26 09:58:58;;;;;;;;;;;;;;;2.62;100.00;99145.81;1657926;86;24965;-85
2022/01/26 10:01:24;;;;;;;;;;;;;;;2.65;100.00;99146.56;1662505;85;20842;-85
2022/01/26 10:03:52;;;;;;;;;;;;;;;2.68;100.00;99150.34;1661599;86;26070;-84
2022/01/26 10:06:27;;;;;;;;;;;;;;;2.71;100.00;99153.30;1659942;86;24694;-85
2022/01/26 10:19:27;;;;;;;;;;;;;;;2.77;100.00;99150.12;1662749;86;24511;-85
2022/01/26 10:21:53;;;;;;;;;;;;;;;2.77;100.00;99140.22;1664628;86;20316;-84
2022/01/26 10:24:22;;;;;;;;;;;;;;;2.75;100.00;99142.84;1662393;86;24817;-85
2022/01/26 10:26:49;;;;;;;;;;;;;;;2.75;100.00;99135.09;1659882;86;21956;-85
2022/01/26 10:29:15;;;;;;;;;;;;;;;2.77;100.00;99139.78;1662103;86;25959;-85
2022/01/26 10:31:42;;;;;;;;;;;;;;;2.78;100.00;99140.16;1661051;86;25280;-85
2022/01/26 10:34:14;;;;;;;;;;;;;;;2.79;100.00;99140.56;1645810;86;20157;-85
2022/01/26 10:36:41;;;;;;;;;;;;;;;2.80;100.00;99137.54;1661821;86;25015;-85
2022/01/26 10:39:13;;;;;;;;;;;;;;;2.82;100.00;99133.19;1662936;86;21933;-85
2022/01/26 10:41:45;;;;;;;;;;;;;;;2.82;100.00;99130.16;1660737;86;26745;-85
2022/01/26 10:44:11;;;;;;;;;;;;;;;2.84;100.00;99132.23;1659941;86;24410;-85
2022/01/26 10:46:39;;;;;;;;;;;;;;;2.84;100.00;99128.36;1661768;86;20845;-85
2022/01/26 10:49:16;;;;;;;;;;;;;;;2.83;100.00;99121.52;1648392;86;25324;-85
2022/01/26 10:51:52;;;;;;;;;;;;;;;2.83;100.00;99121.52;1665437;84;22143;-85
2022/01/26 10:54:18;;;;;;;;;;;;;;;2.87;100.00;99112.78;1668732;84;26650;-85
2022/01/26 10:56:39;;;;;;;;;;;;;;;2.86;100.00;99109.80;1667578;84;24501;-86
2022/01/26 10:59:05;;;;;;;;;;;;;;;2.87;100.00;99103.73;1666463;84;20532;-85
2022/01/26 11:01:31;;;;;;;;;;;;;;;2.90;100.00;99107.52;1668663;85;25018;-85
2022/01/26 11:03:57;;;;;;;;;;;;;;;2.95;100.00;99110.81;1672052;85;21928;-85
2022/01/26 11:06:25;;;;;;;;;;;;;;;3.04;100.00;99105.00;1667100;85;26014;-85
2022/01/26 11:08:53;;;;;;;;;;;;;;;3.10;100.00;99099.65;1672019;85;23991;-85
2022/01/26 11:11:25;;;;;;;;;;;;;;;3.14;100.00;99107.71;1668713;84;20237;-85
2022/01/26 11:13:52;;;;;;;;;;;;;;;3.14;100.00;99106.42;1667502;84;24955;-86
2022/01/26 11:16:22;;;;;;;;;;;;;;;3.14;100.00;99105.98;1673151;85;22741;-85
2022/01/26 11:18:50;;;;;;;;;;;;;;;3.12;100.00;99109.48;1669398;85;26077;-85
2022/01/26 11:21:26;;;;;;;;;;;;;;;3.05;100.00;99101.52;1665951;84;24458;-85
2022/01/26 11:23:55;;;;;;;;;;;;;;;3.04;100.00;99103.70;1671703;84;20225;-85
2022/01/26 11:26:26;;;;;;;;;;;;;;;3.02;100.00;99099.01;1668210;85;26551;-85
2022/01/26 11:28:52;;;;;;;;;;;;;;;3.04;100.00;99091.63;1656503;85;21862;-85
2022/01/26 11:31:19;;;;;;;;;;;;;;;3.04;100.00;99093.36;1666204;85;25982;-85
2022/01/26 11:33:48;;;;;;;;;;;;;;;3.03;100.00;99089.08;1667666;85;24451;-85
2022/01/26 11:36:16;;;;;;;;;;;;;;;3.04;100.00;99088.19;1664377;85;20497;-85
2022/01/26 11:47:06;;;;;;;;;;;;;;;2.97;100.00;99081.49;1667827;84;24499;-85
2022/01/26 11:49:35;;;;;;;;;;;;;;;2.98;100.00;99076.28;1669650;84;20241;-85
2022/01/26 11:52:02;;;;;;;;;;;;;;;3.01;100.00;99074.04;1670716;85;24964;-86
2022/01/26 11:54:30;;;;;;;;;;;;;;;3.00;100.00;99074.96;1671439;85;21957;-85
2022/01/26 11:56:58;;;;;;;;;;;;;;;3.03;100.00;99076.15;1670434;85;26700;-86
2022/01/26 11:59:26;;;;;;;;;;;;;;;3.04;100.00;99072.68;1670728;85;24432;-85
2022/01/26 12:02:00;;;;;;;;;;;;;;;3.07;100.00;99069.98;1672140;85;20542;-86
2022/01/26 12:04:24;;;;;;;;;;;;;;;3.09;100.00;99072.95;1670328;85;24983;-86
2022/01/26 12:06:58;;;;;;;;;;;;;;;3.09;100.00;99070.36;1670463;85;22740;-86
2022/01/26 12:09:20;;;;;;;;;;;;;;;3.10;100.00;99065.59;1669483;85;26003;-86
2022/01/26 12:11:55;;;;;;;;;;;;;;;3.12;100.00;99069.41;1670322;85;24530;-86
2022/01/26 12:14:22;;;;;;;;;;;;;;;3.13;100.00;99067.22;1671550;85;20495;-86
2022/01/26 12:16:51;;;;;;;;;;;;;;;3.17;100.00;99068.81;1670196;85;25072;-86
2022/01/26 12:33:42;;;;;;;;;;;;;;;3.12;100.00;99045.69;1671957;85;22098;-86
2022/01/26 12:38:45;;;;;;;;;;;;;;;3.16;100.00;99040.00;1670515;85;24544;-87
2022/01/26 12:43:39;;;;;;;;;;;;;;;3.20;100.00;99037.70;1670409;85;25116;-86
2022/01/26 12:46:10;;;;;;;;;;;;;;;3.19;100.00;99039.45;1670062;85;21977;-86
2022/01/26 12:48:40;;;;;;;;;;;;;;;3.23;100.00;99032.42;1670573;85;26128;-86
2022/01/26 12:51:07;;;;;;;;;;;;;;;3.24;100.00;99034.98;1663179;85;24563;-87
2022/01/26 12:53:35;;;;;;;;;;;;;;;3.25;100.00;99034.09;1620094;87;20710;-86
2022/01/26 12:56:06;;;;;;;;;;;;;;;3.25;100.00;99035.38;1632125;87;25822;-86
2022/01/26 12:58:35;;;;;;;;;;;;;;;3.23;100.00;99030.69;1633866;87;22040;-86
2022/01/26 13:01:03;;;;;;;;;;;;;;;3.24;100.00;99028.95;1636019;87;25994;-86
2022/01/26 13:03:34;;;;;;;;;;;;;;;3.27;100.00;99023.70;1622580;86;24836;-86
2022/01/26 13:06:08;;;;;;;;;;;;;;;3.28;100.00;99024.08;1633304;87;20310;-86
2022/01/26 13:08:49;;;;;;;;;;;;;;;3.27;100.00;99019.34;1636227;87;24944;-86
2022/01/26 13:11:26;;;;;;;;;;;;;;;3.24;100.00;99025.08;1635035;87;21976;-86
2022/01/26 13:14:21;;;;;;;;;;;;;;;3.22;100.00;99019.94;1634286;87;26104;-86
2022/01/26 13:17:00;;;;;;;;;;;;;;;3.16;100.00;99012.84;1635824;87;24669;-86
2022/01/26 13:22:30;;;;;;;;;;;;;;;3.06;100.00;99021.75;1633316;87;25012;-86
2022/01/26 13:25:02;;;;;;;;;;;;;;;2.97;100.00;99022.03;1632681;87;22070;-86
2022/01/26 13:30:16;;;;;;;;;;;;;;;2.93;100.00;99018.27;1631046;87;24575;-86
2022/01/26 13:33:36;;;;;;;;;;;;;;;2.91;100.00;99023.06;1634408;87;20533;-86
2022/01/26 13:35:34;;;;;;;;;;;;;;;2.92;100.00;99021.73;1632354;85;25666;-86
2022/01/26 13:50:54;;;;;;;;;;;;;;;2.67;100.00;99023.35;1635894;87;22028;-86
2022/01/26 13:58:20;;;;;;;;;;;;;;;2.65;100.00;99038.04;1651837;84;20232;-86
2022/01/26 14:00:38;;;;;;;;;;;;;;;2.66;100.00;99030.70;1666903;85;24998;-86
2022/01/26 14:03:03;;;;;;;;;;;;;;;2.67;100.00;99038.01;1666629;85;22112;-86
2022/01/26 14:05:27;;;;;;;;;;;;;;;2.70;100.00;99031.44;1672123;84;25658;-86
2022/01/26 14:07:56;;;;;;;;;;;;;;;2.71;100.00;99032.70;1666334;85;24482;-86
2022/01/26 14:10:21;;;;;;;;;;;;;;;2.71;100.00;99037.88;1668126;84;20225;-87
2022/01/26 14:12:48;;;;;;;;;;;;;;;2.71;100.00;99039.16;1667786;85;24935;-86
2022/01/26 14:15:21;;;;;;;;;;;;;;;2.70;100.00;99040.48;1666214;84;22003;-86
2022/01/26 14:18:00;;;;;;;;;;;;;;;2.70;100.00;99041.34;1668109;85;26705;-86
2022/01/26 14:20:43;;;;;;;;;;;;;;;2.73;100.00;99041.68;1665174;84;24429;-86
2022/01/26 14:25:30;;;;;;;;;;;;;;;2.75;100.00;99037.33;1667658;85;25064;-86
2022/01/26 14:27:56;;;;;;;;;;;;;;;2.74;100.00;99038.20;1666111;85;21986;-86
2022/01/26 14:36:18;;;;;;;;;;;;;;;2.65;100.00;99030.73;1671686;84;20237;-86
2022/01/26 15:20:38;;;;;;;;;;;;;;;2.42;100.00;99011.55;1665454;85;25888;-86
2022/01/26 15:30:11;;;;;;;;;;;;;;;2.44;100.00;99020.56;1669679;85;20217;-86
2022/01/26 15:51:15;;;;;;;;;;;;;;;2.58;100.00;99031.34;1671029;85;26119;-86
2022/01/26 16:05:11;;;;;;;;;;;;;;;2.91;100.00;99051.50;1560770;91;26017;-86
2022/01/26 16:07:23;;;;;;;;;;;;;;;3.04;100.00;99055.42;1564129;90;24483;-86
2022/01/26 16:12:55;;;;;;;;;;;;;;;3.15;100.00;99062.42;1559004;91;26250;-86
2022/01/26 16:19:28;;;;;;;;;;;;;;;3.20;100.00;99067.00;1555262;91;26116;-86
2022/01/26 16:20:48;;;;;;;;;;;;;;;3.17;100.00;99072.70;1585956;89;24494;-86
2022/01/26 17:12:25;;;;;;;;;;;;;;;2.21;100.00;99020.34;1576821;90;26219;-86
2022/01/26 17:48:28;;;;;;;;;;;;;;;1.78;100.00;98998.23;1577332;90;24989;-86
2022/01/26 18:07:12;;;;;;;;;;;;;;;1.67;100.00;98995.08;1570194;90;26101;-86
2022/01/26 18:33:00;;;;;;;;;;;;;;;1.85;100.00;98960.23;1571560;90;26062;-86
2022/01/26 18:46:28;;;;;;;;;;;;;;;1.85;100.00;98994.63;1568664;90;22214;-86
2022/01/26 18:51:43;;;;;;;;;;;;;;;1.85;100.00;98994.63;1566580;90;20261;-86
2022/01/26 18:54:10;;;;;;;;;;;;;;;1.82;100.00;98997.27;1575132;90;24946;-86
2022/01/26 18:56:39;;;;;;;;;;;;;;;1.83;100.00;99000.70;1571751;90;21965;-85
2022/01/26 18:59:10;;;;;;;;;;;;;;;1.81;100.00;99003.75;1578632;90;27363;-86
2022/01/26 19:01:37;;;;;;;;;;;;;;;1.81;100.00;98999.88;1574115;90;24450;-86
2022/01/26 19:04:03;;;;;;;;;;;;;;;1.82;100.00;99005.45;1579435;90;20225;-86
2022/01/26 19:06:29;;;;;;;;;;;;;;;1.79;100.00;99005.09;1575584;90;25138;-86
2022/01/26 19:08:57;;;;;;;;;;;;;;;1.78;100.00;98999.53;1574613;90;21946;-86